createdAt,value
2023-05-22T00:01:42.749Z,3.28
2023-05-22T00:04:10.085Z,3.40
2023-05-22T00:06:37.123Z,3.80
2023-05-22T00:09:03.778Z,4.68
2023-05-22T00:11:30.507Z,4.55
2023-05-22T00:13:56.985Z,4.88
2023-05-22T00:16:23.563Z,4.47
2023-05-22T00:18:50.084Z,3.90
2023-05-22T00:21:17.072Z,4.35
2023-05-22T00:23:43.635Z,4.47
2023-05-22T00:26:10.378Z,4.65
2023-05-22T00:28:36.903Z,3.80
2023-05-22T00:31:03.790Z,3.20
2023-05-22T00:33:30.307Z,3.90
2023-05-22T00:35:56.774Z,4.07
2023-05-22T00:38:31.032Z,4.80
2023-05-22T00:40:57.984Z,4.40
2023-05-22T00:43:24.540Z,4.07
2023-05-22T00:45:52.445Z,4.32
2023-05-22T00:48:19.028Z,4.55
2023-05-22T00:50:45.663Z,4.70
2023-05-22T00:53:13.280Z,3.70
2023-05-22T00:55:40.211Z,5.30
2023-05-22T00:58:09.037Z,4.30
2023-05-22T01:00:36.949Z,4.90
2023-05-22T01:03:05.669Z,4.55
2023-05-22T01:05:32.401Z,4.90
2023-05-22T01:07:58.993Z,4.67
2023-05-22T01:10:26.384Z,4.50
2023-05-22T01:13:20.290Z,5.20
2023-05-22T01:16:19.178Z,4.65
2023-05-22T01:19:04.546Z,3.95
2023-05-22T01:21:40.598Z,4.17
2023-05-22T01:24:28.222Z,4.60
2023-05-22T01:27:07.727Z,5.38
2023-05-22T01:29:54.148Z,4.38
2023-05-22T01:32:23.201Z,5.00
2023-05-22T01:34:53.612Z,4.30
2023-05-22T01:37:22.503Z,4.55
2023-05-22T01:39:51.272Z,4.40
2023-05-22T01:42:18.899Z,4.53
2023-05-22T01:44:45.517Z,4.25
2023-05-22T01:47:12.016Z,4.83
2023-05-22T01:49:39.838Z,4.85
2023-05-22T01:52:06.673Z,4.90
2023-05-22T01:54:42.444Z,4.72
2023-05-22T01:57:17.812Z,5.35
2023-05-22T01:59:54.527Z,4.23
2023-05-22T02:02:23.293Z,3.83
2023-05-22T02:04:55.945Z,4.57
2023-05-22T02:07:25.014Z,4.70
2023-05-22T02:09:54.012Z,4.95
2023-05-22T02:12:22.706Z,4.33
2023-05-22T02:14:49.471Z,5.18
2023-05-22T02:17:18.110Z,4.72
2023-05-22T02:19:45.251Z,4.32
2023-05-22T02:22:14.776Z,4.38
2023-05-22T02:24:48.672Z,4.47
2023-05-22T02:27:15.330Z,4.47
2023-05-22T02:29:41.832Z,4.07
2023-05-22T02:32:08.433Z,3.97
2023-05-22T02:34:35.064Z,4.22
2023-05-22T02:37:05.383Z,3.90
2023-05-22T02:39:31.935Z,3.35
2023-05-22T02:41:58.574Z,4.38
2023-05-22T02:44:25.066Z,3.17
2023-05-22T02:46:51.627Z,4.20
2023-05-22T02:49:18.243Z,4.63
2023-05-22T02:51:47.647Z,4.50
2023-05-22T02:54:15.952Z,4.45
2023-05-22T02:56:43.323Z,4.32
2023-05-22T02:59:10.090Z,3.92
2023-05-22T03:01:38.825Z,3.83
2023-05-22T03:04:06.780Z,4.05
2023-05-22T03:06:35.063Z,3.92
2023-05-22T03:09:03.936Z,3.97
2023-05-22T03:11:31.444Z,3.28
2023-05-22T03:13:58.071Z,4.07
2023-05-22T03:16:25.027Z,4.28
2023-05-22T03:18:53.428Z,3.80
2023-05-22T03:21:19.992Z,4.70
2023-05-22T03:23:47.222Z,4.15
2023-05-22T03:26:13.771Z,4.70
2023-05-22T03:28:40.641Z,5.10
2023-05-22T03:31:09.311Z,4.40
2023-05-22T03:33:35.918Z,3.88
2023-05-22T03:36:03.580Z,3.97
2023-05-22T03:38:30.109Z,4.20
2023-05-22T03:40:56.632Z,4.80
2023-05-22T03:43:23.151Z,4.22
2023-05-22T03:45:49.767Z,4.57
2023-05-22T03:48:16.345Z,4.32
2023-05-22T03:50:42.878Z,4.60
2023-05-22T03:53:09.450Z,4.38
2023-05-22T03:55:35.982Z,4.40
2023-05-22T03:58:02.631Z,5.07
2023-05-22T04:00:29.509Z,4.32
2023-05-22T04:02:58.706Z,4.53
2023-05-22T04:05:25.536Z,4.18
2023-05-22T04:07:52.215Z,4.30
2023-05-22T04:10:22.545Z,3.63
2023-05-22T04:12:49.899Z,4.63
2023-05-22T04:15:16.566Z,4.50
2023-05-22T04:17:43.213Z,5.15
2023-05-22T04:20:11.245Z,5.53
2023-05-22T04:22:38.539Z,4.22
2023-05-22T04:25:05.460Z,4.95
2023-05-22T04:27:33.254Z,3.30
2023-05-22T04:30:00.667Z,3.25
2023-05-22T04:32:27.584Z,4.30
2023-05-22T04:34:54.285Z,4.15
2023-05-22T04:37:20.875Z,3.78
2023-05-22T04:39:47.422Z,4.20
2023-05-22T04:42:14.511Z,4.95
2023-05-22T04:44:41.892Z,5.13
2023-05-22T04:47:14.220Z,4.60
2023-05-22T04:49:42.471Z,4.93
2023-05-22T04:52:11.531Z,3.67
2023-05-22T04:54:38.939Z,4.78
2023-05-22T04:57:05.844Z,4.43
2023-05-22T04:59:37.926Z,4.10
2023-05-22T05:02:05.803Z,4.60
2023-05-22T05:04:33.325Z,5.03
2023-05-22T05:07:00.228Z,5.20
2023-05-22T05:09:26.732Z,5.32
2023-05-22T05:11:55.036Z,5.03
2023-05-22T05:14:21.894Z,4.90
2023-05-22T05:16:48.487Z,4.43
2023-05-22T05:19:21.310Z,3.53
2023-05-22T05:21:49.335Z,5.20
2023-05-22T05:24:19.999Z,4.65
2023-05-22T05:26:46.549Z,4.78
2023-05-22T05:29:14.527Z,4.10
2023-05-22T05:31:41.235Z,4.47
2023-05-22T05:34:07.789Z,5.00
2023-05-22T05:36:34.432Z,4.10
2023-05-22T05:39:01.128Z,5.30
2023-05-22T05:41:27.726Z,4.80
2023-05-22T05:43:57.304Z,4.97
2023-05-22T05:46:24.462Z,4.10
2023-05-22T05:48:51.009Z,3.25
2023-05-22T05:51:17.594Z,3.65
2023-05-22T05:53:44.132Z,4.60
2023-05-22T05:56:10.718Z,3.65
2023-05-22T05:58:37.498Z,3.67
2023-05-22T06:01:07.429Z,4.10
2023-05-22T06:03:34.258Z,3.85
2023-05-22T06:06:01.036Z,4.30
2023-05-22T06:08:28.328Z,4.18
2023-05-22T06:10:54.915Z,3.83
2023-05-22T06:13:21.413Z,3.33
2023-05-22T06:15:48.432Z,3.60
2023-05-22T06:18:15.064Z,3.70
2023-05-22T06:20:41.719Z,3.33
2023-05-22T06:23:08.591Z,3.47
2023-05-22T06:25:35.177Z,3.78
2023-05-22T06:28:01.964Z,3.83
2023-05-22T06:30:39.617Z,3.73
2023-05-22T06:33:07.666Z,3.28
2023-05-22T06:35:34.273Z,3.30
2023-05-22T06:38:00.742Z,3.60
2023-05-22T06:40:27.406Z,3.13
2023-05-22T06:42:53.962Z,3.57
2023-05-22T06:45:20.535Z,3.25
2023-05-22T06:47:47.167Z,3.42
2023-05-22T06:50:13.815Z,3.47
2023-05-22T06:52:40.415Z,3.83
2023-05-22T06:55:07.778Z,3.43
2023-05-22T06:57:34.719Z,3.05
2023-05-22T07:00:01.390Z,3.20
2023-05-22T07:02:27.947Z,3.03
2023-05-22T07:04:54.685Z,2.92
2023-05-22T07:07:21.378Z,3.47
2023-05-22T07:09:48.025Z,2.53
2023-05-22T07:12:14.738Z,3.38
2023-05-22T07:14:41.337Z,2.65
2023-05-22T07:17:08.100Z,3.15
2023-05-22T07:19:35.738Z,2.87
2023-05-22T07:22:02.431Z,2.67
2023-05-22T07:24:29.074Z,3.55
2023-05-22T07:26:55.733Z,2.80
2023-05-22T07:29:23.343Z,2.90
2023-05-22T07:31:50.340Z,2.40
2023-05-22T07:34:16.973Z,2.50
2023-05-22T07:36:43.573Z,3.00
2023-05-22T07:39:10.038Z,2.63
2023-05-22T07:41:36.803Z,3.38
2023-05-22T07:44:03.366Z,2.57
2023-05-22T07:46:29.984Z,2.20
2023-05-22T07:48:56.905Z,2.97
2023-05-22T07:51:23.535Z,2.78
2023-05-22T07:53:50.099Z,3.10
2023-05-22T07:56:17.580Z,2.80
2023-05-22T07:58:44.346Z,2.20
2023-05-22T08:01:11.148Z,2.45
2023-05-22T08:03:37.963Z,2.60
2023-05-22T08:06:04.788Z,2.50
2023-05-22T08:08:32.079Z,2.20
2023-05-22T08:13:28.047Z,2.85
2023-05-22T08:16:00.615Z,2.80
2023-05-22T08:18:29.225Z,2.22
2023-05-22T08:20:56.292Z,2.23
2023-05-22T08:23:22.948Z,2.40
2023-05-22T08:25:50.277Z,2.60
2023-05-22T08:28:17.285Z,2.50
2023-05-22T08:30:44.098Z,2.80
2023-05-22T08:33:12.027Z,1.60
2023-05-22T08:35:39.043Z,2.10
2023-05-22T08:38:05.632Z,2.15
2023-05-22T08:40:38.024Z,2.10
2023-05-22T08:43:06.150Z,2.20
2023-05-22T08:45:34.191Z,1.97
2023-05-22T08:48:08.162Z,2.30
2023-05-22T08:50:41.723Z,2.42
2023-05-22T08:53:13.044Z,2.35
2023-05-22T08:55:39.932Z,2.38
2023-05-22T08:58:06.789Z,2.33
2023-05-22T09:00:34.057Z,2.00
2023-05-22T09:03:00.826Z,2.50
2023-05-22T09:05:27.623Z,2.10
2023-05-22T09:08:02.577Z,2.15
2023-05-22T09:10:32.149Z,2.13
2023-05-22T09:13:05.371Z,1.90
2023-05-22T09:15:32.786Z,2.03
2023-05-22T09:18:00.265Z,1.90
2023-05-22T09:20:26.868Z,1.83
2023-05-22T09:22:53.528Z,2.37
2023-05-22T09:25:23.250Z,2.22
2023-05-22T09:27:49.889Z,2.30
2023-05-22T09:30:19.744Z,1.88
2023-05-22T09:32:48.844Z,2.08
2023-05-22T09:35:16.355Z,2.00
2023-05-22T09:37:43.113Z,2.13
2023-05-22T09:40:14.042Z,2.65
2023-05-22T09:42:45.699Z,2.20
2023-05-22T09:45:12.859Z,2.15
2023-05-22T09:47:40.387Z,2.10
2023-05-22T09:50:10.321Z,2.35
2023-05-22T09:52:37.937Z,2.30
2023-05-22T09:55:07.007Z,2.08
2023-05-22T09:57:41.917Z,2.33
2023-05-22T10:00:13.051Z,2.33
2023-05-22T10:02:44.273Z,1.73
2023-05-22T10:05:12.157Z,2.38
2023-05-22T10:07:52.841Z,2.20
2023-05-22T10:10:22.889Z,2.30
2023-05-22T10:13:04.596Z,2.43
2023-05-22T10:15:32.242Z,2.40
2023-05-22T10:17:59.397Z,2.10
2023-05-22T10:20:27.047Z,2.15
2023-05-22T10:22:54.566Z,1.98
2023-05-22T10:25:21.891Z,1.80
2023-05-22T10:27:51.943Z,2.15
2023-05-22T10:30:48.051Z,2.15
2023-05-22T10:33:21.451Z,2.60
2023-05-22T10:35:56.956Z,2.60
2023-05-22T10:38:26.600Z,2.13
2023-05-22T10:40:54.179Z,2.05
2023-05-22T10:43:22.625Z,2.42
2023-05-22T10:45:49.246Z,2.00
2023-05-22T10:48:21.579Z,2.60
2023-05-22T10:50:54.131Z,2.57
2023-05-22T10:53:25.470Z,2.25
2023-05-22T10:56:02.620Z,2.45
2023-05-22T10:58:30.892Z,2.42
2023-05-22T11:01:18.359Z,2.15
2023-05-22T11:04:02.069Z,2.43
2023-05-22T11:06:41.050Z,2.33
2023-05-22T11:09:29.500Z,2.13
2023-05-22T11:12:17.402Z,2.40
2023-05-22T11:14:59.018Z,2.70
2023-05-22T11:17:29.293Z,2.60
2023-05-22T11:20:01.879Z,1.80
2023-05-22T11:22:33.906Z,2.30
2023-05-22T11:25:03.360Z,2.28
2023-05-22T11:27:30.078Z,2.28
2023-05-22T11:29:56.787Z,1.80
2023-05-22T11:32:23.688Z,2.00
2023-05-22T11:34:50.666Z,2.92
2023-05-22T11:37:20.841Z,2.10
2023-05-22T11:39:57.985Z,2.38
2023-05-22T11:42:25.056Z,2.30
2023-05-22T11:44:51.917Z,1.98
2023-05-22T11:47:18.569Z,2.42
2023-05-22T11:49:45.159Z,2.60
2023-05-22T11:52:11.785Z,2.55
2023-05-22T11:54:39.076Z,2.97
2023-05-22T11:57:07.788Z,2.20
2023-05-22T11:59:34.499Z,1.88
2023-05-22T12:02:01.146Z,2.35
2023-05-22T12:04:28.128Z,2.42
2023-05-22T12:06:55.378Z,2.60
2023-05-22T12:09:22.309Z,2.30
2023-05-22T12:11:49.020Z,2.28
2023-05-22T12:14:16.170Z,2.05
2023-05-22T12:16:44.871Z,2.85
2023-05-22T12:19:12.745Z,3.10
2023-05-22T12:21:41.754Z,2.28
2023-05-22T12:24:08.518Z,2.47
2023-05-22T12:26:36.495Z,2.63
2023-05-22T12:29:06.433Z,2.53
2023-05-22T12:31:38.392Z,2.47
2023-05-22T12:34:07.615Z,2.38
2023-05-22T12:36:41.154Z,2.47
2023-05-22T12:39:17.408Z,2.30
2023-05-22T12:41:45.509Z,2.53
2023-05-22T12:44:13.021Z,1.87
2023-05-22T12:46:41.126Z,2.63
2023-05-22T12:49:07.891Z,2.30
2023-05-22T12:51:34.711Z,2.53
2023-05-22T12:54:04.681Z,2.28
2023-05-22T12:56:31.936Z,2.70
2023-05-22T12:58:58.899Z,2.30
2023-05-22T13:01:26.285Z,2.00
2023-05-22T13:03:53.311Z,2.10
2023-05-22T13:06:20.538Z,2.17
2023-05-22T13:08:47.199Z,2.20
2023-05-22T13:11:13.911Z,1.75
2023-05-22T13:13:40.397Z,2.33
2023-05-22T13:16:07.117Z,2.05
2023-05-22T13:18:33.708Z,2.17
2023-05-22T13:21:00.663Z,2.13
2023-05-22T13:23:27.260Z,2.20
2023-05-22T13:25:53.861Z,2.28
2023-05-22T13:28:21.293Z,1.98
2023-05-22T13:30:47.886Z,2.72
2023-05-22T13:33:14.607Z,2.20
2023-05-22T13:35:41.409Z,2.00
2023-05-22T13:38:08.082Z,3.08
2023-05-22T13:40:34.661Z,2.40
2023-05-22T13:43:01.216Z,2.22
2023-05-22T13:45:27.843Z,2.40
2023-05-22T13:47:54.533Z,1.98
2023-05-22T13:50:21.123Z,2.38
2023-05-22T13:52:47.678Z,2.30
2023-05-22T13:55:14.177Z,2.25
2023-05-22T13:57:40.912Z,2.33
2023-05-22T14:00:09.417Z,1.92
2023-05-22T14:02:36.134Z,2.25
2023-05-22T14:05:02.787Z,2.38
2023-05-22T14:07:29.298Z,2.10
2023-05-22T14:09:55.900Z,2.27
2023-05-22T14:12:22.417Z,2.00
2023-05-22T14:14:49.000Z,2.15
2023-05-22T14:17:15.563Z,2.60
2023-05-22T14:19:42.192Z,2.40
2023-05-22T14:22:08.778Z,2.30
2023-05-22T14:24:35.464Z,1.92
2023-05-22T14:27:02.117Z,2.13
2023-05-22T14:29:28.785Z,2.80
2023-05-22T14:32:04.135Z,2.42
2023-05-22T14:34:30.865Z,2.00
2023-05-22T14:36:58.369Z,2.30
2023-05-22T14:39:26.102Z,2.17
2023-05-22T14:41:53.559Z,2.50
2023-05-22T14:44:22.398Z,2.72
2023-05-22T14:46:50.944Z,2.77
2023-05-22T14:49:17.751Z,2.35
2023-05-22T14:51:48.219Z,2.70
2023-05-22T14:54:17.641Z,1.90
2023-05-22T14:56:44.390Z,2.40
2023-05-22T14:59:14.364Z,2.00
2023-05-22T15:01:41.474Z,2.50
2023-05-22T15:04:08.896Z,1.90
2023-05-22T15:06:36.231Z,2.30
2023-05-22T15:09:03.237Z,2.10
2023-05-22T15:11:29.776Z,1.97
2023-05-22T15:13:56.391Z,2.45
2023-05-22T15:16:23.168Z,2.50
2023-05-22T15:18:50.610Z,2.25
2023-05-22T15:21:17.504Z,2.53
2023-05-22T15:23:44.205Z,2.57
2023-05-22T15:26:10.935Z,2.03
2023-05-22T15:28:37.426Z,3.00
2023-05-22T15:31:03.940Z,1.92
2023-05-22T15:33:30.831Z,2.20
2023-05-22T15:35:57.381Z,2.17
2023-05-22T15:38:23.950Z,2.50
2023-05-22T15:40:50.457Z,2.42
2023-05-22T15:43:16.950Z,2.20
2023-05-22T15:45:46.702Z,2.47
2023-05-22T15:48:13.409Z,2.30
2023-05-22T15:50:40.080Z,2.20
2023-05-22T15:53:06.777Z,2.38
2023-05-22T15:55:34.124Z,2.38
2023-05-22T15:58:02.688Z,2.28
2023-05-22T16:00:29.282Z,2.30
2023-05-22T16:02:56.039Z,2.25
2023-05-22T16:05:22.876Z,2.40
2023-05-22T16:07:49.467Z,2.10
2023-05-22T16:10:16.164Z,2.35
2023-05-22T16:12:42.767Z,2.70
2023-05-22T16:15:09.878Z,2.50
2023-05-22T16:17:36.394Z,5.90
2023-05-22T16:20:04.670Z,5.10
2023-05-22T16:22:44.066Z,3.95
2023-05-22T16:25:17.948Z,3.37
2023-05-22T16:27:44.638Z,2.85
2023-05-22T16:30:12.128Z,3.33
2023-05-22T16:32:39.117Z,2.92
2023-05-22T16:35:06.167Z,2.47
2023-05-22T16:37:33.703Z,3.20
2023-05-22T16:40:00.497Z,3.10
2023-05-22T16:42:27.247Z,2.25
2023-05-22T16:44:54.066Z,2.72
2023-05-22T16:47:21.668Z,2.53
2023-05-22T16:49:48.247Z,2.30
2023-05-22T16:52:14.806Z,2.20
2023-05-22T16:54:41.417Z,2.78
2023-05-22T16:57:07.948Z,2.50
2023-05-22T16:59:34.708Z,2.42
2023-05-22T17:02:01.311Z,2.60
2023-05-22T17:04:27.790Z,2.15
2023-05-22T17:06:55.912Z,2.53
2023-05-22T17:09:22.446Z,2.30
2023-05-22T17:11:49.186Z,3.15
2023-05-22T17:14:15.760Z,2.40
2023-05-22T17:16:42.418Z,2.10
2023-05-22T17:19:09.807Z,2.97
2023-05-22T17:21:36.998Z,2.28
2023-05-22T17:24:03.964Z,2.85
2023-05-22T17:26:30.512Z,2.83
2023-05-22T17:28:57.069Z,2.50
2023-05-22T17:31:23.678Z,2.95
2023-05-22T17:33:50.705Z,2.65
2023-05-22T17:36:17.194Z,2.20
2023-05-22T17:38:43.690Z,2.57
2023-05-22T17:41:10.390Z,2.63
2023-05-22T17:43:38.225Z,3.05
2023-05-22T17:46:05.767Z,2.58
2023-05-22T17:48:33.562Z,2.72
2023-05-22T17:51:00.796Z,3.10
2023-05-22T17:53:32.024Z,2.35
2023-05-22T17:55:58.558Z,3.00
2023-05-22T17:58:25.194Z,2.33
2023-05-22T18:00:52.200Z,2.47
2023-05-22T18:03:20.536Z,2.90
2023-05-22T18:05:48.565Z,2.65
2023-05-22T18:08:15.401Z,2.67
2023-05-22T18:10:42.122Z,2.65
2023-05-22T18:13:09.275Z,3.00
2023-05-22T18:15:35.933Z,2.60
2023-05-22T18:18:03.311Z,2.53
2023-05-22T18:20:30.269Z,2.90
2023-05-22T18:22:56.940Z,2.67
2023-05-22T18:25:23.627Z,3.10
2023-05-22T18:27:50.352Z,2.60
2023-05-22T18:30:17.845Z,2.75
2023-05-22T18:32:44.450Z,2.85
2023-05-22T18:35:11.088Z,2.80
2023-05-22T18:37:37.851Z,3.63
2023-05-22T18:40:07.519Z,2.80
2023-05-22T18:42:34.057Z,2.95
2023-05-22T18:45:00.797Z,3.25
2023-05-22T18:47:27.389Z,5.32
2023-05-22T18:49:54.045Z,3.80
2023-05-22T18:52:20.725Z,2.90
2023-05-22T18:54:47.373Z,3.20
2023-05-22T18:57:16.254Z,3.22
2023-05-22T18:59:43.484Z,2.75
2023-05-22T19:02:10.103Z,3.28
2023-05-22T19:04:36.842Z,2.80
2023-05-22T19:07:03.749Z,2.90
2023-05-22T19:09:30.370Z,3.67
2023-05-22T19:11:56.904Z,2.65
2023-05-22T19:14:23.423Z,2.58
2023-05-22T19:16:50.074Z,2.50
2023-05-22T19:19:16.794Z,2.90
2023-05-22T19:21:43.369Z,3.28
2023-05-22T19:24:10.191Z,2.55
2023-05-22T19:26:36.998Z,3.08
2023-05-22T19:29:03.934Z,2.80
2023-05-22T19:31:30.878Z,3.22
2023-05-22T19:33:57.694Z,3.38
2023-05-22T19:36:24.339Z,3.15
2023-05-22T19:38:53.266Z,2.92
2023-05-22T19:41:23.156Z,3.47
2023-05-22T19:43:51.354Z,3.30
2023-05-22T19:46:18.146Z,3.72
2023-05-22T19:48:44.798Z,2.80
2023-05-22T19:51:11.447Z,3.25
2023-05-22T19:53:38.153Z,2.70
2023-05-22T19:56:04.840Z,3.13
2023-05-22T19:58:31.443Z,3.30
2023-05-22T20:00:58.081Z,3.13
2023-05-22T20:03:26.460Z,3.13
2023-05-22T20:05:53.704Z,3.63
2023-05-22T20:08:22.263Z,2.90
2023-05-22T20:10:48.916Z,3.60
2023-05-22T20:13:15.626Z,3.33
2023-05-22T20:15:42.351Z,3.70
2023-05-22T20:18:10.704Z,4.07
2023-05-22T20:20:37.414Z,5.30
2023-05-22T20:23:04.039Z,4.07
2023-05-22T20:25:30.592Z,3.40
2023-05-22T20:27:57.091Z,3.97
2023-05-22T20:30:23.673Z,3.47
2023-05-22T20:32:50.409Z,3.35
2023-05-22T20:35:20.181Z,3.40
2023-05-22T20:37:47.601Z,3.80
2023-05-22T20:40:15.011Z,3.55
2023-05-22T20:42:42.756Z,3.70
2023-05-22T20:45:12.872Z,4.40
2023-05-22T20:47:41.023Z,4.10
2023-05-22T20:50:08.989Z,3.42
2023-05-22T20:52:37.307Z,4.97
2023-05-22T20:55:04.819Z,4.20
2023-05-22T20:57:31.495Z,4.18
2023-05-22T20:59:58.483Z,3.72
2023-05-22T21:02:26.021Z,4.10
2023-05-22T21:04:53.261Z,4.53
2023-05-22T21:07:19.907Z,4.23
2023-05-22T21:09:46.515Z,3.97
2023-05-22T21:12:13.364Z,4.13
2023-05-22T21:14:40.333Z,4.32
2023-05-22T21:17:07.132Z,3.60
2023-05-22T21:19:33.892Z,4.00
2023-05-22T21:22:03.212Z,3.80
2023-05-22T21:24:31.721Z,4.43
2023-05-22T21:26:58.840Z,3.70
2023-05-22T21:29:25.481Z,4.35
2023-05-22T21:31:52.105Z,4.47
2023-05-22T21:34:18.775Z,4.22
2023-05-22T21:36:45.446Z,4.32
2023-05-22T21:39:12.104Z,4.20
2023-05-22T21:41:38.664Z,4.10
2023-05-22T21:44:05.182Z,4.70
2023-05-22T21:46:31.873Z,4.32
2023-05-22T21:48:58.660Z,4.07
2023-05-22T21:51:25.232Z,3.80
2023-05-22T21:53:51.795Z,3.90
2023-05-22T21:56:18.242Z,3.80
2023-05-22T21:58:44.814Z,3.90
2023-05-22T22:01:12.573Z,5.07
2023-05-22T22:03:39.297Z,3.95
2023-05-22T22:06:06.558Z,4.63
2023-05-22T22:08:33.188Z,4.17
2023-05-22T22:10:59.815Z,4.05
2023-05-22T22:13:26.443Z,5.38
2023-05-22T22:15:53.590Z,4.60
2023-05-22T22:18:20.559Z,4.95
2023-05-22T22:20:50.142Z,4.10
2023-05-22T22:23:16.912Z,5.22
2023-05-22T22:25:43.516Z,4.68
2023-05-22T22:28:10.077Z,3.92
2023-05-22T22:30:36.647Z,4.32
2023-05-22T22:33:03.269Z,3.77
2023-05-22T22:35:29.876Z,4.95
2023-05-22T22:37:56.996Z,4.75
2023-05-22T22:40:24.815Z,4.30
2023-05-22T22:42:53.201Z,4.15
2023-05-22T22:45:19.729Z,4.67
2023-05-22T22:47:46.328Z,4.50
2023-05-22T22:50:12.896Z,4.53
2023-05-22T22:52:45.318Z,4.20
2023-05-22T22:55:12.238Z,4.43
2023-05-22T22:57:39.042Z,4.00
2023-05-22T23:00:06.603Z,4.00
2023-05-22T23:02:33.274Z,4.80
2023-05-22T23:05:00.300Z,5.35
2023-05-22T23:07:28.139Z,5.80
2023-05-22T23:09:54.701Z,4.70
2023-05-22T23:12:21.248Z,4.05
2023-05-22T23:14:47.719Z,5.03
2023-05-22T23:17:14.290Z,4.38
2023-05-22T23:19:40.861Z,4.47
2023-05-22T23:22:07.599Z,4.90
2023-05-22T23:24:34.206Z,4.20
2023-05-22T23:27:01.417Z,4.90
2023-05-22T23:29:27.980Z,5.22
2023-05-22T23:31:55.439Z,4.43
2023-05-22T23:34:22.020Z,4.03
2023-05-22T23:36:48.609Z,4.45
2023-05-22T23:39:15.132Z,4.93
2023-05-22T23:41:42.178Z,4.70
2023-05-22T23:44:08.779Z,4.53
2023-05-22T23:46:37.190Z,4.70
2023-05-22T23:49:03.773Z,5.03
2023-05-22T23:51:31.244Z,5.28
2023-05-22T23:53:57.798Z,4.78
2023-05-22T23:56:24.319Z,4.85
2023-05-22T23:58:50.860Z,4.50
